Pagrindinis puslapis
METAR-TAF:

METAR-TAF

Oro uostai :

Hooper Bay, Aliaska, Jungtinės Amerikos Valstijos

platuma: 61-31N, ilguma: 166-08W, Aukštis: 5 m

Dabartinis oras

Ataskaita buvo paskelbta 28 minutes, ne 18:56 UTC
Vėjas 3 kt iš Rytų
Temperatūra 0°C
Drėgmė 93%
Slėgis 1021 hPa
Matomumas: 16.1 km
Apsiniaukę ne aukštis 3200 ft

METAR: PAHP 281856Z AUTO 09003KT 10SM OVC032 00/M01 A3015 RMK AO2 SLP211 T00001006 FZRANO $

Laikas: 11:24 (19:24 UTC)


TAF: trūkstamas

Orai ataskaitas ir orų prognozės (METAR, TAF).

turimą stotys yra geltonos ir raudonos taškus žemėlapyje.

Perkelti pele per norėdami pamatyti stoties vardą.

Tada spustelėkite, norėdami matyti oro stebėjimo ir prognozės.

Norėdami pakeisti žemėlapį: spustelėkite ant žalios mygtukų su juodo kryžiaus žemyn,; žalią mygtuką su brūkšneliu, jei norite nutolinti; arba žalių rodyklių gretimoms žemėlapius.


METAR-TAF: